sensor_id;sensor_type;location;lat;lon;timestamp;P1;durP1;ratioP1;P2;durP2;ratioP2
146;SDS011;45999;48.808;9.182;2023-05-07T00:01:07;4.67;;;3.90;;
146;SDS011;45999;48.808;9.182;2023-05-07T00:03:33;4.93;;;3.43;;
146;SDS011;45999;48.808;9.182;2023-05-07T00:06:00;4.53;;;3.27;;
146;SDS011;45999;48.808;9.182;2023-05-07T00:08:26;4.87;;;3.90;;
146;SDS011;45999;48.808;9.182;2023-05-07T00:10:52;3.80;;;3.13;;
146;SDS011;45999;48.808;9.182;2023-05-07T00:13:19;4.63;;;3.60;;
146;SDS011;45999;48.808;9.182;2023-05-07T00:15:45;5.00;;;3.53;;
146;SDS011;45999;48.808;9.182;2023-05-07T00:18:12;5.13;;;3.50;;
146;SDS011;45999;48.808;9.182;2023-05-07T00:20:38;3.67;;;3.33;;
146;SDS011;45999;48.808;9.182;2023-05-07T00:23:04;4.53;;;3.57;;
146;SDS011;45999;48.808;9.182;2023-05-07T00:25:31;6.10;;;3.43;;
146;SDS011;45999;48.808;9.182;2023-05-07T00:27:57;5.90;;;3.90;;
146;SDS011;45999;48.808;9.182;2023-05-07T00:30:28;6.27;;;3.50;;
146;SDS011;45999;48.808;9.182;2023-05-07T00:32:54;4.83;;;3.33;;
146;SDS011;45999;48.808;9.182;2023-05-07T00:35:21;4.83;;;3.57;;
146;SDS011;45999;48.808;9.182;2023-05-07T00:37:47;6.43;;;3.87;;
146;SDS011;45999;48.808;9.182;2023-05-07T00:40:14;4.50;;;3.73;;
146;SDS011;45999;48.808;9.182;2023-05-07T00:42:41;4.73;;;3.17;;
146;SDS011;45999;48.808;9.182;2023-05-07T00:45:12;4.67;;;3.60;;
146;SDS011;45999;48.808;9.182;2023-05-07T00:47:40;6.67;;;3.70;;
146;SDS011;45999;48.808;9.182;2023-05-07T00:50:07;4.43;;;3.80;;
146;SDS011;45999;48.808;9.182;2023-05-07T00:52:34;6.40;;;3.50;;
146;SDS011;45999;48.808;9.182;2023-05-07T00:55:02;6.93;;;3.70;;
146;SDS011;45999;48.808;9.182;2023-05-07T00:57:37;4.63;;;3.67;;
146;SDS011;45999;48.808;9.182;2023-05-07T01:00:06;3.77;;;3.23;;
146;SDS011;45999;48.808;9.182;2023-05-07T01:02:35;4.83;;;3.20;;
146;SDS011;45999;48.808;9.182;2023-05-07T01:05:02;5.50;;;3.30;;
146;SDS011;45999;48.808;9.182;2023-05-07T01:07:31;7.23;;;3.70;;
146;SDS011;45999;48.808;9.182;2023-05-07T01:09:59;5.37;;;3.33;;
146;SDS011;45999;48.808;9.182;2023-05-07T01:12:26;5.80;;;3.47;;
146;SDS011;45999;48.808;9.182;2023-05-07T01:14:54;5.30;;;3.30;;
146;SDS011;45999;48.808;9.182;2023-05-07T01:17:21;4.33;;;2.90;;
146;SDS011;45999;48.808;9.182;2023-05-07T01:19:47;3.33;;;3.03;;
146;SDS011;45999;48.808;9.182;2023-05-07T01:22:14;4.17;;;3.30;;
146;SDS011;45999;48.808;9.182;2023-05-07T01:24:42;4.27;;;3.07;;
146;SDS011;45999;48.808;9.182;2023-05-07T01:27:09;5.70;;;3.70;;
146;SDS011;45999;48.808;9.182;2023-05-07T01:29:35;4.07;;;3.50;;
146;SDS011;45999;48.808;9.182;2023-05-07T01:32:01;4.50;;;3.47;;
146;SDS011;45999;48.808;9.182;2023-05-07T01:34:30;5.37;;;3.30;;
146;SDS011;45999;48.808;9.182;2023-05-07T01:36:58;4.80;;;3.30;;
146;SDS011;45999;48.808;9.182;2023-05-07T01:39:25;5.90;;;3.40;;
146;SDS011;45999;48.808;9.182;2023-05-07T01:41:55;6.53;;;3.87;;
146;SDS011;45999;48.808;9.182;2023-05-07T01:44:22;7.13;;;3.47;;
146;SDS011;45999;48.808;9.182;2023-05-07T01:46:49;5.17;;;3.40;;
146;SDS011;45999;48.808;9.182;2023-05-07T01:49:16;3.77;;;3.00;;
146;SDS011;45999;48.808;9.182;2023-05-07T01:51:42;3.97;;;3.20;;
146;SDS011;45999;48.808;9.182;2023-05-07T01:54:09;4.07;;;3.50;;
146;SDS011;45999;48.808;9.182;2023-05-07T01:56:36;5.20;;;3.53;;
146;SDS011;45999;48.808;9.182;2023-05-07T01:59:02;8.93;;;3.20;;
146;SDS011;45999;48.808;9.182;2023-05-07T02:01:28;5.83;;;3.70;;
146;SDS011;45999;48.808;9.182;2023-05-07T02:03:55;5.00;;;3.77;;
146;SDS011;45999;48.808;9.182;2023-05-07T02:06:21;4.83;;;3.30;;
146;SDS011;45999;48.808;9.182;2023-05-07T02:08:48;3.43;;;3.13;;
146;SDS011;45999;48.808;9.182;2023-05-07T02:11:14;5.00;;;3.10;;
146;SDS011;45999;48.808;9.182;2023-05-07T02:13:41;6.40;;;3.30;;
146;SDS011;45999;48.808;9.182;2023-05-07T02:16:07;5.47;;;3.60;;
146;SDS011;45999;48.808;9.182;2023-05-07T02:18:33;4.80;;;3.00;;
146;SDS011;45999;48.808;9.182;2023-05-07T02:21:00;5.00;;;3.10;;
146;SDS011;45999;48.808;9.182;2023-05-07T02:23:27;5.30;;;3.10;;
146;SDS011;45999;48.808;9.182;2023-05-07T02:25:53;5.00;;;3.33;;
146;SDS011;45999;48.808;9.182;2023-05-07T02:28:19;4.13;;;3.70;;
146;SDS011;45999;48.808;9.182;2023-05-07T02:30:46;5.17;;;3.30;;
146;SDS011;45999;48.808;9.182;2023-05-07T02:33:12;6.13;;;3.37;;
146;SDS011;45999;48.808;9.182;2023-05-07T02:35:38;6.53;;;3.80;;
146;SDS011;45999;48.808;9.182;2023-05-07T02:38:05;5.37;;;3.83;;
146;SDS011;45999;48.808;9.182;2023-05-07T02:40:31;7.23;;;4.20;;
146;SDS011;45999;48.808;9.182;2023-05-07T02:43:03;7.73;;;3.77;;
146;SDS011;45999;48.808;9.182;2023-05-07T02:45:30;4.47;;;3.57;;
146;SDS011;45999;48.808;9.182;2023-05-07T02:47:56;4.73;;;3.73;;
146;SDS011;45999;48.808;9.182;2023-05-07T02:50:22;6.40;;;4.40;;
146;SDS011;45999;48.808;9.182;2023-05-07T02:52:49;4.57;;;4.00;;
146;SDS011;45999;48.808;9.182;2023-05-07T02:55:15;7.90;;;4.63;;
146;SDS011;45999;48.808;9.182;2023-05-07T02:57:42;7.77;;;4.90;;
146;SDS011;45999;48.808;9.182;2023-05-07T03:00:15;9.20;;;4.70;;
146;SDS011;45999;48.808;9.182;2023-05-07T03:02:43;6.80;;;4.97;;
146;SDS011;45999;48.808;9.182;2023-05-07T03:05:10;8.00;;;4.47;;
146;SDS011;45999;48.808;9.182;2023-05-07T03:07:37;5.03;;;4.17;;
146;SDS011;45999;48.808;9.182;2023-05-07T03:10:04;6.67;;;3.83;;
146;SDS011;45999;48.808;9.182;2023-05-07T03:12:31;4.47;;;3.63;;
146;SDS011;45999;48.808;9.182;2023-05-07T03:14:57;4.97;;;3.87;;
146;SDS011;45999;48.808;9.182;2023-05-07T03:17:23;5.57;;;3.87;;
146;SDS011;45999;48.808;9.182;2023-05-07T03:19:50;4.83;;;3.43;;
146;SDS011;45999;48.808;9.182;2023-05-07T03:22:16;4.53;;;3.87;;
146;SDS011;45999;48.808;9.182;2023-05-07T03:24:42;4.37;;;3.50;;
146;SDS011;45999;48.808;9.182;2023-05-07T03:27:09;4.87;;;3.47;;
146;SDS011;45999;48.808;9.182;2023-05-07T03:29:35;4.67;;;3.80;;
146;SDS011;45999;48.808;9.182;2023-05-07T03:32:01;5.77;;;3.63;;
146;SDS011;45999;48.808;9.182;2023-05-07T03:34:28;3.80;;;3.40;;
146;SDS011;45999;48.808;9.182;2023-05-07T03:36:54;3.90;;;3.60;;
146;SDS011;45999;48.808;9.182;2023-05-07T03:39:21;5.53;;;3.30;;
146;SDS011;45999;48.808;9.182;2023-05-07T03:41:47;5.20;;;3.43;;
146;SDS011;45999;48.808;9.182;2023-05-07T03:44:14;5.37;;;4.10;;
146;SDS011;45999;48.808;9.182;2023-05-07T03:46:40;4.90;;;3.80;;
146;SDS011;45999;48.808;9.182;2023-05-07T03:49:06;4.43;;;3.60;;
146;SDS011;45999;48.808;9.182;2023-05-07T03:51:33;3.83;;;3.20;;
146;SDS011;45999;48.808;9.182;2023-05-07T03:54:00;4.10;;;3.40;;
146;SDS011;45999;48.808;9.182;2023-05-07T03:56:27;4.07;;;3.67;;
146;SDS011;45999;48.808;9.182;2023-05-07T03:58:53;4.70;;;3.70;;
146;SDS011;45999;48.808;9.182;2023-05-07T04:01:20;3.57;;;3.20;;
146;SDS011;45999;48.808;9.182;2023-05-07T04:03:46;4.70;;;3.50;;
146;SDS011;45999;48.808;9.182;2023-05-07T04:06:12;8.50;;;4.03;;
146;SDS011;45999;48.808;9.182;2023-05-07T04:08:39;5.77;;;3.63;;
146;SDS011;45999;48.808;9.182;2023-05-07T04:11:06;4.70;;;3.97;;
146;SDS011;45999;48.808;9.182;2023-05-07T04:13:32;5.63;;;3.63;;
146;SDS011;45999;48.808;9.182;2023-05-07T04:15:58;4.33;;;3.73;;
146;SDS011;45999;48.808;9.182;2023-05-07T04:18:27;3.80;;;3.50;;
146;SDS011;45999;48.808;9.182;2023-05-07T04:20:53;5.10;;;3.80;;
146;SDS011;45999;48.808;9.182;2023-05-07T04:23:19;4.77;;;3.57;;
146;SDS011;45999;48.808;9.182;2023-05-07T04:25:46;5.03;;;3.53;;
146;SDS011;45999;48.808;9.182;2023-05-07T04:28:12;5.17;;;3.60;;
146;SDS011;45999;48.808;9.182;2023-05-07T04:30:39;4.47;;;3.97;;
146;SDS011;45999;48.808;9.182;2023-05-07T04:33:06;4.60;;;4.10;;
146;SDS011;45999;48.808;9.182;2023-05-07T04:35:32;5.57;;;3.77;;
146;SDS011;45999;48.808;9.182;2023-05-07T04:37:59;5.00;;;3.40;;
146;SDS011;45999;48.808;9.182;2023-05-07T04:40:25;5.60;;;3.50;;
146;SDS011;45999;48.808;9.182;2023-05-07T04:42:51;5.03;;;3.60;;
146;SDS011;45999;48.808;9.182;2023-05-07T04:45:18;3.90;;;3.13;;
146;SDS011;45999;48.808;9.182;2023-05-07T04:47:44;4.10;;;3.70;;
146;SDS011;45999;48.808;9.182;2023-05-07T04:50:11;3.70;;;3.40;;
146;SDS011;45999;48.808;9.182;2023-05-07T04:52:37;4.00;;;3.60;;
146;SDS011;45999;48.808;9.182;2023-05-07T04:55:03;4.50;;;3.63;;
146;SDS011;45999;48.808;9.182;2023-05-07T04:57:30;5.40;;;3.40;;
146;SDS011;45999;48.808;9.182;2023-05-07T04:59:56;5.77;;;4.10;;
146;SDS011;45999;48.808;9.182;2023-05-07T05:02:23;4.97;;;3.87;;
146;SDS011;45999;48.808;9.182;2023-05-07T05:04:49;4.53;;;3.60;;
146;SDS011;45999;48.808;9.182;2023-05-07T05:07:18;4.70;;;3.97;;
146;SDS011;45999;48.808;9.182;2023-05-07T05:09:44;3.93;;;3.63;;
146;SDS011;45999;48.808;9.182;2023-05-07T05:12:11;4.10;;;3.70;;
146;SDS011;45999;48.808;9.182;2023-05-07T05:14:37;4.40;;;3.93;;
146;SDS011;45999;48.808;9.182;2023-05-07T05:17:03;4.80;;;3.97;;
146;SDS011;45999;48.808;9.182;2023-05-07T05:19:30;4.03;;;3.63;;
146;SDS011;45999;48.808;9.182;2023-05-07T05:21:56;4.47;;;3.67;;
146;SDS011;45999;48.808;9.182;2023-05-07T05:24:22;6.87;;;3.90;;
146;SDS011;45999;48.808;9.182;2023-05-07T05:26:49;4.33;;;3.93;;
146;SDS011;45999;48.808;9.182;2023-05-07T05:29:15;4.10;;;3.50;;
146;SDS011;45999;48.808;9.182;2023-05-07T05:31:41;3.63;;;3.33;;
146;SDS011;45999;48.808;9.182;2023-05-07T05:34:08;4.50;;;4.00;;
146;SDS011;45999;48.808;9.182;2023-05-07T05:36:34;5.30;;;3.97;;
146;SDS011;45999;48.808;9.182;2023-05-07T05:39:00;5.73;;;3.50;;
146;SDS011;45999;48.808;9.182;2023-05-07T05:41:27;4.40;;;3.90;;
146;SDS011;45999;48.808;9.182;2023-05-07T05:43:53;5.07;;;4.10;;
146;SDS011;45999;48.808;9.182;2023-05-07T05:46:20;4.80;;;4.07;;
146;SDS011;45999;48.808;9.182;2023-05-07T05:48:46;6.03;;;4.33;;
146;SDS011;45999;48.808;9.182;2023-05-07T05:51:12;3.97;;;3.67;;
146;SDS011;45999;48.808;9.182;2023-05-07T05:53:39;4.43;;;3.97;;
146;SDS011;45999;48.808;9.182;2023-05-07T05:56:05;5.90;;;4.17;;
146;SDS011;45999;48.808;9.182;2023-05-07T05:58:32;4.87;;;4.07;;
146;SDS011;45999;48.808;9.182;2023-05-07T06:00:58;5.43;;;4.80;;
146;SDS011;45999;48.808;9.182;2023-05-07T06:03:27;4.03;;;3.63;;
146;SDS011;45999;48.808;9.182;2023-05-07T06:05:53;4.63;;;4.00;;
146;SDS011;45999;48.808;9.182;2023-05-07T06:08:20;5.27;;;4.10;;
146;SDS011;45999;48.808;9.182;2023-05-07T06:10:46;4.73;;;3.47;;
146;SDS011;45999;48.808;9.182;2023-05-07T06:13:12;5.80;;;3.97;;
146;SDS011;45999;48.808;9.182;2023-05-07T06:15:39;4.77;;;3.63;;
146;SDS011;45999;48.808;9.182;2023-05-07T06:18:05;4.00;;;3.60;;
146;SDS011;45999;48.808;9.182;2023-05-07T06:20:31;5.27;;;4.00;;
146;SDS011;45999;48.808;9.182;2023-05-07T06:22:58;5.23;;;3.90;;
146;SDS011;45999;48.808;9.182;2023-05-07T06:25:24;4.53;;;4.07;;
146;SDS011;45999;48.808;9.182;2023-05-07T06:27:50;4.27;;;3.83;;
146;SDS011;45999;48.808;9.182;2023-05-07T06:30:17;4.40;;;4.00;;
146;SDS011;45999;48.808;9.182;2023-05-07T06:32:43;5.00;;;4.07;;
146;SDS011;45999;48.808;9.182;2023-05-07T06:35:09;7.87;;;4.27;;
146;SDS011;45999;48.808;9.182;2023-05-07T06:37:36;4.43;;;4.03;;
146;SDS011;45999;48.808;9.182;2023-05-07T06:40:03;5.33;;;4.73;;
146;SDS011;45999;48.808;9.182;2023-05-07T06:42:31;4.63;;;3.93;;
146;SDS011;45999;48.808;9.182;2023-05-07T06:44:57;5.00;;;4.60;;
146;SDS011;45999;48.808;9.182;2023-05-07T06:47:23;4.97;;;4.50;;
146;SDS011;45999;48.808;9.182;2023-05-07T06:49:50;4.67;;;4.20;;
146;SDS011;45999;48.808;9.182;2023-05-07T06:52:16;4.97;;;3.90;;
146;SDS011;45999;48.808;9.182;2023-05-07T06:54:42;4.67;;;4.23;;
146;SDS011;45999;48.808;9.182;2023-05-07T06:57:09;5.77;;;4.57;;
146;SDS011;45999;48.808;9.182;2023-05-07T06:59:35;4.87;;;4.20;;
146;SDS011;45999;48.808;9.182;2023-05-07T07:02:01;4.90;;;4.50;;
146;SDS011;45999;48.808;9.182;2023-05-07T07:04:28;4.30;;;3.93;;
146;SDS011;45999;48.808;9.182;2023-05-07T07:06:55;4.23;;;3.67;;
146;SDS011;45999;48.808;9.182;2023-05-07T07:09:22;4.43;;;3.93;;
146;SDS011;45999;48.808;9.182;2023-05-07T07:11:48;3.90;;;3.50;;
146;SDS011;45999;48.808;9.182;2023-05-07T07:14:15;4.60;;;4.00;;
146;SDS011;45999;48.808;9.182;2023-05-07T07:16:41;5.37;;;4.10;;
146;SDS011;45999;48.808;9.182;2023-05-07T07:19:07;4.53;;;3.43;;
146;SDS011;45999;48.808;9.182;2023-05-07T07:21:34;5.47;;;3.80;;
146;SDS011;45999;48.808;9.182;2023-05-07T07:24:00;4.67;;;3.53;;
146;SDS011;45999;48.808;9.182;2023-05-07T07:26:27;3.97;;;3.60;;
146;SDS011;45999;48.808;9.182;2023-05-07T07:28:53;3.37;;;3.07;;
146;SDS011;45999;48.808;9.182;2023-05-07T07:31:19;4.53;;;3.30;;
146;SDS011;45999;48.808;9.182;2023-05-07T07:33:46;8.03;;;3.50;;
146;SDS011;45999;48.808;9.182;2023-05-07T07:36:12;4.87;;;3.40;;
146;SDS011;45999;48.808;9.182;2023-05-07T07:38:38;4.10;;;3.70;;
146;SDS011;45999;48.808;9.182;2023-05-07T07:41:05;4.33;;;3.53;;
146;SDS011;45999;48.808;9.182;2023-05-07T07:43:31;4.23;;;3.23;;
146;SDS011;45999;48.808;9.182;2023-05-07T07:45:57;3.97;;;3.60;;
146;SDS011;45999;48.808;9.182;2023-05-07T07:48:24;3.97;;;3.57;;
146;SDS011;45999;48.808;9.182;2023-05-07T07:50:50;4.43;;;4.07;;
146;SDS011;45999;48.808;9.182;2023-05-07T07:53:17;5.47;;;3.53;;
146;SDS011;45999;48.808;9.182;2023-05-07T07:55:43;6.17;;;4.20;;
146;SDS011;45999;48.808;9.182;2023-05-07T07:58:10;4.00;;;3.30;;
146;SDS011;45999;48.808;9.182;2023-05-07T08:00:36;4.20;;;3.30;;
146;SDS011;45999;48.808;9.182;2023-05-07T08:03:03;3.37;;;3.00;;
146;SDS011;45999;48.808;9.182;2023-05-07T08:05:30;3.40;;;3.10;;
146;SDS011;45999;48.808;9.182;2023-05-07T08:07:56;5.40;;;2.97;;
146;SDS011;45999;48.808;9.182;2023-05-07T08:10:23;5.17;;;3.00;;
146;SDS011;45999;48.808;9.182;2023-05-07T08:12:49;3.70;;;2.97;;
146;SDS011;45999;48.808;9.182;2023-05-07T08:15:16;5.40;;;3.27;;
146;SDS011;45999;48.808;9.182;2023-05-07T08:17:43;4.57;;;2.93;;
146;SDS011;45999;48.808;9.182;2023-05-07T08:20:10;3.90;;;2.90;;
146;SDS011;45999;48.808;9.182;2023-05-07T08:22:36;4.30;;;3.17;;
146;SDS011;45999;48.808;9.182;2023-05-07T08:25:03;5.13;;;3.10;;
146;SDS011;45999;48.808;9.182;2023-05-07T08:27:29;4.30;;;2.73;;
146;SDS011;45999;48.808;9.182;2023-05-07T08:29:56;3.30;;;2.60;;
146;SDS011;45999;48.808;9.182;2023-05-07T08:32:22;3.33;;;2.73;;
146;SDS011;45999;48.808;9.182;2023-05-07T08:34:48;4.13;;;3.00;;
146;SDS011;45999;48.808;9.182;2023-05-07T08:37:15;4.60;;;2.90;;
146;SDS011;45999;48.808;9.182;2023-05-07T08:39:41;3.10;;;2.80;;
146;SDS011;45999;48.808;9.182;2023-05-07T08:42:08;3.60;;;2.50;;
146;SDS011;45999;48.808;9.182;2023-05-07T08:44:37;4.67;;;2.33;;
146;SDS011;45999;48.808;9.182;2023-05-07T08:47:06;3.30;;;2.20;;
146;SDS011;45999;48.808;9.182;2023-05-07T08:49:33;3.00;;;2.20;;
146;SDS011;45999;48.808;9.182;2023-05-07T08:52:00;3.47;;;2.37;;
146;SDS011;45999;48.808;9.182;2023-05-07T08:54:27;2.50;;;2.30;;
146;SDS011;45999;48.808;9.182;2023-05-07T08:56:54;3.70;;;2.70;;
146;SDS011;45999;48.808;9.182;2023-05-07T08:59:21;2.67;;;2.27;;
146;SDS011;45999;48.808;9.182;2023-05-07T09:01:47;3.43;;;2.30;;
146;SDS011;45999;48.808;9.182;2023-05-07T09:04:14;3.10;;;2.47;;
146;SDS011;45999;48.808;9.182;2023-05-07T09:06:40;3.10;;;2.80;;
146;SDS011;45999;48.808;9.182;2023-05-07T09:09:07;2.50;;;2.30;;
146;SDS011;45999;48.808;9.182;2023-05-07T09:11:33;2.70;;;1.97;;
146;SDS011;45999;48.808;9.182;2023-05-07T09:14:00;2.90;;;2.30;;
146;SDS011;45999;48.808;9.182;2023-05-07T09:16:28;2.67;;;2.20;;
146;SDS011;45999;48.808;9.182;2023-05-07T09:18:56;3.87;;;2.17;;
146;SDS011;45999;48.808;9.182;2023-05-07T09:21:24;2.30;;;2.10;;
146;SDS011;45999;48.808;9.182;2023-05-07T09:23:51;2.80;;;2.20;;
146;SDS011;45999;48.808;9.182;2023-05-07T09:26:22;4.33;;;2.50;;
146;SDS011;45999;48.808;9.182;2023-05-07T09:28:48;3.80;;;2.25;;
146;SDS011;45999;48.808;9.182;2023-05-07T09:31:15;2.33;;;2.13;;
146;SDS011;45999;48.808;9.182;2023-05-07T09:33:41;2.60;;;1.95;;
146;SDS011;45999;48.808;9.182;2023-05-07T09:36:09;2.92;;;2.00;;
146;SDS011;45999;48.808;9.182;2023-05-07T09:38:36;3.13;;;2.33;;
146;SDS011;45999;48.808;9.182;2023-05-07T09:43:32;3.22;;;2.20;;
146;SDS011;45999;48.808;9.182;2023-05-07T09:46:02;2.80;;;2.20;;
146;SDS011;45999;48.808;9.182;2023-05-07T09:48:39;2.85;;;2.03;;
146;SDS011;45999;48.808;9.182;2023-05-07T09:51:18;3.08;;;1.90;;
146;SDS011;45999;48.808;9.182;2023-05-07T09:53:52;2.00;;;1.80;;
146;SDS011;45999;48.808;9.182;2023-05-07T09:56:19;2.35;;;1.92;;
146;SDS011;45999;48.808;9.182;2023-05-07T09:58:46;2.42;;;1.98;;
146;SDS011;45999;48.808;9.182;2023-05-07T10:01:12;1.92;;;1.77;;
146;SDS011;45999;48.808;9.182;2023-05-07T10:03:39;2.55;;;1.90;;
146;SDS011;45999;48.808;9.182;2023-05-07T10:06:08;2.78;;;2.00;;
146;SDS011;45999;48.808;9.182;2023-05-07T10:08:36;2.92;;;1.80;;
146;SDS011;45999;48.808;9.182;2023-05-07T10:11:03;1.95;;;1.85;;
146;SDS011;45999;48.808;9.182;2023-05-07T10:13:30;2.60;;;1.92;;
146;SDS011;45999;48.808;9.182;2023-05-07T10:15:58;1.73;;;1.63;;
146;SDS011;45999;48.808;9.182;2023-05-07T10:18:25;3.42;;;1.98;;
146;SDS011;45999;48.808;9.182;2023-05-07T10:20:54;1.80;;;1.70;;
146;SDS011;45999;48.808;9.182;2023-05-07T10:23:25;2.30;;;1.80;;
146;SDS011;45999;48.808;9.182;2023-05-07T10:25:53;1.75;;;1.65;;
146;SDS011;45999;48.808;9.182;2023-05-07T10:28:22;2.35;;;1.90;;
146;SDS011;45999;48.808;9.182;2023-05-07T10:33:33;2.35;;;1.80;;
146;SDS011;45999;48.808;9.182;2023-05-07T10:36:03;2.17;;;1.98;;
146;SDS011;45999;48.808;9.182;2023-05-07T10:38:32;2.08;;;1.80;;
146;SDS011;45999;48.808;9.182;2023-05-07T10:40:59;2.85;;;1.70;;
146;SDS011;45999;48.808;9.182;2023-05-07T10:43:25;2.42;;;1.90;;
146;SDS011;45999;48.808;9.182;2023-05-07T10:51:29;2.90;;;1.70;;
146;SDS011;45999;48.808;9.182;2023-05-07T10:56:36;2.25;;;1.58;;
146;SDS011;45999;48.808;9.182;2023-05-07T11:01:59;3.25;;;1.98;;
146;SDS011;45999;48.808;9.182;2023-05-07T11:04:27;3.35;;;1.90;;
146;SDS011;45999;48.808;9.182;2023-05-07T11:15:11;2.35;;;1.90;;
146;SDS011;45999;48.808;9.182;2023-05-07T11:26:03;3.40;;;1.90;;
146;SDS011;45999;48.808;9.182;2023-05-07T11:28:36;4.88;;;2.10;;
146;SDS011;45999;48.808;9.182;2023-05-07T11:31:06;3.58;;;2.08;;
146;SDS011;45999;48.808;9.182;2023-05-07T11:33:34;3.15;;;2.08;;
146;SDS011;45999;48.808;9.182;2023-05-07T11:36:04;1.70;;;1.60;;
146;SDS011;45999;48.808;9.182;2023-05-07T11:38:34;1.83;;;1.70;;
146;SDS011;45999;48.808;9.182;2023-05-07T11:41:02;2.17;;;1.98;;
146;SDS011;45999;48.808;9.182;2023-05-07T11:43:30;2.42;;;1.75;;
146;SDS011;45999;48.808;9.182;2023-05-07T11:46:10;3.05;;;1.80;;
146;SDS011;45999;48.808;9.182;2023-05-07T11:48:39;1.90;;;1.80;;
146;SDS011;45999;48.808;9.182;2023-05-07T11:51:06;2.13;;;1.90;;
146;SDS011;45999;48.808;9.182;2023-05-07T11:53:37;1.83;;;1.70;;
146;SDS011;45999;48.808;9.182;2023-05-07T11:58:35;2.42;;;1.95;;
146;SDS011;45999;48.808;9.182;2023-05-07T12:01:02;2.00;;;1.80;;
146;SDS011;45999;48.808;9.182;2023-05-07T12:03:29;2.28;;;2.00;;
146;SDS011;45999;48.808;9.182;2023-05-07T12:05:55;2.33;;;1.80;;
146;SDS011;45999;48.808;9.182;2023-05-07T12:08:22;3.15;;;2.08;;
146;SDS011;45999;48.808;9.182;2023-05-07T12:10:49;3.13;;;2.03;;
146;SDS011;45999;48.808;9.182;2023-05-07T12:13:20;3.38;;;1.77;;
146;SDS011;45999;48.808;9.182;2023-05-07T12:15:50;2.85;;;2.35;;
146;SDS011;45999;48.808;9.182;2023-05-07T12:18:18;3.27;;;2.47;;
146;SDS011;45999;48.808;9.182;2023-05-07T12:20:45;6.00;;;2.60;;
146;SDS011;45999;48.808;9.182;2023-05-07T12:23:12;3.73;;;2.70;;
146;SDS011;45999;48.808;9.182;2023-05-07T12:25:39;3.63;;;2.60;;
146;SDS011;45999;48.808;9.182;2023-05-07T12:28:12;3.50;;;2.70;;
146;SDS011;45999;48.808;9.182;2023-05-07T12:30:43;7.03;;;3.63;;
146;SDS011;45999;48.808;9.182;2023-05-07T12:33:10;7.77;;;3.80;;
146;SDS011;45999;48.808;9.182;2023-05-07T12:35:41;5.33;;;3.63;;
146;SDS011;45999;48.808;9.182;2023-05-07T12:38:13;6.97;;;2.67;;
146;SDS011;45999;48.808;9.182;2023-05-07T12:40:45;5.27;;;2.60;;
146;SDS011;45999;48.808;9.182;2023-05-07T12:45:46;5.73;;;3.67;;
146;SDS011;45999;48.808;9.182;2023-05-07T12:48:14;6.93;;;3.77;;
146;SDS011;45999;48.808;9.182;2023-05-07T12:50:40;7.60;;;4.27;;
146;SDS011;45999;48.808;9.182;2023-05-07T12:53:08;7.80;;;5.53;;
146;SDS011;45999;48.808;9.182;2023-05-07T12:55:40;8.87;;;5.43;;
146;SDS011;45999;48.808;9.182;2023-05-07T12:58:08;6.27;;;4.23;;
146;SDS011;45999;48.808;9.182;2023-05-07T13:00:41;9.03;;;4.33;;
146;SDS011;45999;48.808;9.182;2023-05-07T13:03:08;9.17;;;2.83;;
146;SDS011;45999;48.808;9.182;2023-05-07T13:05:35;3.10;;;2.60;;
146;SDS011;45999;48.808;9.182;2023-05-07T13:08:02;10.73;;;3.73;;
146;SDS011;45999;48.808;9.182;2023-05-07T13:10:28;8.23;;;2.10;;
146;SDS011;45999;48.808;9.182;2023-05-07T13:12:54;6.60;;;2.27;;
146;SDS011;45999;48.808;9.182;2023-05-07T13:15:21;3.30;;;1.87;;
146;SDS011;45999;48.808;9.182;2023-05-07T13:17:48;5.60;;;1.97;;
146;SDS011;45999;48.808;9.182;2023-05-07T13:20:14;3.27;;;1.87;;
146;SDS011;45999;48.808;9.182;2023-05-07T13:22:40;4.67;;;1.93;;
146;SDS011;45999;48.808;9.182;2023-05-07T13:25:07;2.37;;;1.67;;
146;SDS011;45999;48.808;9.182;2023-05-07T13:27:34;6.17;;;2.30;;
146;SDS011;45999;48.808;9.182;2023-05-07T13:30:01;5.60;;;2.10;;
146;SDS011;45999;48.808;9.182;2023-05-07T13:32:29;4.17;;;1.80;;
146;SDS011;45999;48.808;9.182;2023-05-07T13:34:56;2.90;;;1.80;;
146;SDS011;45999;48.808;9.182;2023-05-07T13:37:22;2.60;;;2.00;;
146;SDS011;45999;48.808;9.182;2023-05-07T13:39:48;4.40;;;2.33;;
146;SDS011;45999;48.808;9.182;2023-05-07T13:42:15;4.83;;;2.30;;
146;SDS011;45999;48.808;9.182;2023-05-07T13:44:41;4.17;;;2.30;;
146;SDS011;45999;48.808;9.182;2023-05-07T13:47:08;4.63;;;2.30;;
146;SDS011;45999;48.808;9.182;2023-05-07T13:49:35;2.13;;;1.93;;
146;SDS011;45999;48.808;9.182;2023-05-07T13:52:01;6.67;;;2.40;;
146;SDS011;45999;48.808;9.182;2023-05-07T13:54:28;4.23;;;2.03;;
146;SDS011;45999;48.808;9.182;2023-05-07T13:56:54;5.77;;;2.60;;
146;SDS011;45999;48.808;9.182;2023-05-07T13:59:20;3.43;;;2.63;;
146;SDS011;45999;48.808;9.182;2023-05-07T14:01:47;4.17;;;2.20;;
146;SDS011;45999;48.808;9.182;2023-05-07T14:04:14;3.80;;;2.63;;
146;SDS011;45999;48.808;9.182;2023-05-07T14:06:40;2.83;;;2.30;;
146;SDS011;45999;48.808;9.182;2023-05-07T14:09:07;5.63;;;2.47;;
146;SDS011;45999;48.808;9.182;2023-05-07T14:11:33;2.60;;;1.73;;
146;SDS011;45999;48.808;9.182;2023-05-07T14:14:00;2.10;;;1.53;;
146;SDS011;45999;48.808;9.182;2023-05-07T14:16:26;2.03;;;1.60;;
146;SDS011;45999;48.808;9.182;2023-05-07T14:18:52;2.20;;;1.30;;
146;SDS011;45999;48.808;9.182;2023-05-07T14:21:19;3.07;;;1.53;;
146;SDS011;45999;48.808;9.182;2023-05-07T14:23:45;3.23;;;1.60;;
146;SDS011;45999;48.808;9.182;2023-05-07T14:26:12;2.73;;;1.77;;
146;SDS011;45999;48.808;9.182;2023-05-07T14:28:38;2.53;;;1.83;;
146;SDS011;45999;48.808;9.182;2023-05-07T14:31:06;2.40;;;2.00;;
146;SDS011;45999;48.808;9.182;2023-05-07T14:33:32;2.97;;;2.20;;
146;SDS011;45999;48.808;9.182;2023-05-07T14:35:58;5.50;;;2.20;;
146;SDS011;45999;48.808;9.182;2023-05-07T14:38:25;2.60;;;2.00;;
146;SDS011;45999;48.808;9.182;2023-05-07T14:40:51;2.47;;;2.13;;
146;SDS011;45999;48.808;9.182;2023-05-07T14:43:20;2.90;;;1.80;;
146;SDS011;45999;48.808;9.182;2023-05-07T14:45:47;2.80;;;2.40;;
146;SDS011;45999;48.808;9.182;2023-05-07T14:48:13;4.23;;;2.20;;
146;SDS011;45999;48.808;9.182;2023-05-07T14:50:42;4.83;;;1.70;;
146;SDS011;45999;48.808;9.182;2023-05-07T14:53:09;1.93;;;1.80;;
146;SDS011;45999;48.808;9.182;2023-05-07T14:55:35;4.20;;;2.30;;
146;SDS011;45999;48.808;9.182;2023-05-07T14:58:02;2.50;;;2.07;;
146;SDS011;45999;48.808;9.182;2023-05-07T15:00:28;2.87;;;2.27;;
146;SDS011;45999;48.808;9.182;2023-05-07T15:02:55;2.93;;;2.00;;
146;SDS011;45999;48.808;9.182;2023-05-07T15:05:32;2.70;;;2.00;;
146;SDS011;45999;48.808;9.182;2023-05-07T15:07:59;3.10;;;1.93;;
146;SDS011;45999;48.808;9.182;2023-05-07T15:10:25;3.80;;;2.50;;
146;SDS011;45999;48.808;9.182;2023-05-07T15:12:52;2.90;;;2.17;;
146;SDS011;45999;48.808;9.182;2023-05-07T15:15:18;4.53;;;2.27;;
146;SDS011;45999;48.808;9.182;2023-05-07T15:17:45;4.57;;;2.40;;
146;SDS011;45999;48.808;9.182;2023-05-07T15:20:11;2.27;;;1.93;;
146;SDS011;45999;48.808;9.182;2023-05-07T15:22:38;2.77;;;2.00;;
146;SDS011;45999;48.808;9.182;2023-05-07T15:25:06;3.30;;;2.23;;
146;SDS011;45999;48.808;9.182;2023-05-07T15:27:33;4.07;;;2.77;;
146;SDS011;45999;48.808;9.182;2023-05-07T15:29:59;3.17;;;2.87;;
146;SDS011;45999;48.808;9.182;2023-05-07T15:32:26;3.87;;;3.07;;
146;SDS011;45999;48.808;9.182;2023-05-07T15:34:52;5.20;;;2.70;;
146;SDS011;45999;48.808;9.182;2023-05-07T15:37:19;4.40;;;3.20;;
146;SDS011;45999;48.808;9.182;2023-05-07T15:39:45;4.00;;;3.10;;
146;SDS011;45999;48.808;9.182;2023-05-07T15:42:11;4.80;;;2.90;;
146;SDS011;45999;48.808;9.182;2023-05-07T15:44:38;3.40;;;2.80;;
146;SDS011;45999;48.808;9.182;2023-05-07T15:47:05;4.07;;;3.00;;
146;SDS011;45999;48.808;9.182;2023-05-07T15:49:31;3.17;;;2.87;;
146;SDS011;45999;48.808;9.182;2023-05-07T15:51:58;3.77;;;2.30;;